createdAt,value
2022-12-23T00:01:23.954Z,59.10
2022-12-23T00:03:51.230Z,67.20
2022-12-23T00:06:19.412Z,53.03
2022-12-23T00:08:46.954Z,57.30
2022-12-23T00:11:18.557Z,66.68
2022-12-23T00:14:04.263Z,54.33
2022-12-23T00:18:57.994Z,52.22
2022-12-23T00:21:24.679Z,51.97
2022-12-23T00:23:51.799Z,47.40
2022-12-23T00:26:21.638Z,57.10
2022-12-23T00:28:48.741Z,53.38
2022-12-23T00:31:18.995Z,61.30
2022-12-23T00:33:47.888Z,55.35
2022-12-23T00:36:27.210Z,52.25
2022-12-23T00:39:13.053Z,53.42
2022-12-23T00:44:25.057Z,48.20
2022-12-23T00:46:52.036Z,51.15
2022-12-23T00:49:38.585Z,49.25
2022-12-23T00:52:07.482Z,55.58
2022-12-23T00:54:34.489Z,47.05
2022-12-23T00:57:01.710Z,49.35
2022-12-23T00:59:28.425Z,51.13
2022-12-23T01:02:13.807Z,51.22
2022-12-23T01:04:59.093Z,44.28
2022-12-23T01:07:26.137Z,47.80
2022-12-23T01:09:52.738Z,54.97
2022-12-23T01:12:19.753Z,50.00
2022-12-23T01:14:46.503Z,50.70
2022-12-23T01:17:13.846Z,48.15
2022-12-23T01:19:40.695Z,48.40
2022-12-23T01:22:07.442Z,46.78
2022-12-23T01:24:34.209Z,50.13
2022-12-23T01:27:01.052Z,46.58
2022-12-23T01:29:27.750Z,45.58
2022-12-23T01:31:54.604Z,51.30
2022-12-23T01:34:21.399Z,47.20
2022-12-23T01:36:48.041Z,44.78
2022-12-23T01:39:14.797Z,49.58
2022-12-23T01:42:00.045Z,45.05
2022-12-23T01:45:06.114Z,38.97
2022-12-23T01:47:33.406Z,44.85
2022-12-23T01:50:08.765Z,47.47
2022-12-23T01:55:03.744Z,44.90
2022-12-23T01:57:30.695Z,46.80
2022-12-23T02:00:15.874Z,44.33
2022-12-23T02:03:02.609Z,48.35
2022-12-23T02:05:29.456Z,48.00
2022-12-23T02:08:14.822Z,43.55
2022-12-23T02:10:52.970Z,48.47
2022-12-23T02:14:14.522Z,46.90
2022-12-23T02:16:46.437Z,47.55
2022-12-23T02:19:30.252Z,46.22
2022-12-23T02:22:24.253Z,53.17
2022-12-23T02:25:24.823Z,48.58
2022-12-23T02:28:17.535Z,47.53
2022-12-23T02:30:57.400Z,43.65
2022-12-23T02:33:36.738Z,49.05
2022-12-23T02:36:28.202Z,46.22
2022-12-23T02:39:00.202Z,46.47
2022-12-23T02:41:45.309Z,52.63
2022-12-23T02:44:31.061Z,45.42
2022-12-23T02:47:20.731Z,42.50
2022-12-23T02:49:56.807Z,48.08
2022-12-23T02:52:27.533Z,44.90
2022-12-23T02:54:57.711Z,45.90
2022-12-23T02:57:30.062Z,50.75
2022-12-23T02:59:57.185Z,49.35
2022-12-23T03:02:24.021Z,48.70
2022-12-23T03:04:50.790Z,46.03
2022-12-23T03:07:21.566Z,48.90
2022-12-23T03:10:06.736Z,47.17
2022-12-23T03:13:02.382Z,46.00
2022-12-23T03:15:35.272Z,47.67
2022-12-23T03:18:26.757Z,50.22
2022-12-23T03:21:28.554Z,48.58
2022-12-23T03:24:23.122Z,54.17
2022-12-23T03:26:57.507Z,50.05
2022-12-23T03:29:29.323Z,54.13
2022-12-23T03:31:58.779Z,53.00
2022-12-23T03:34:30.150Z,51.38
2022-12-23T03:36:59.384Z,48.38
2022-12-23T03:39:36.018Z,48.15
2022-12-23T03:42:17.839Z,54.47
2022-12-23T03:45:10.685Z,53.72
2022-12-23T03:47:42.179Z,54.22
2022-12-23T03:50:11.703Z,53.72
2022-12-23T03:52:41.819Z,54.65
2022-12-23T03:55:13.873Z,53.80
2022-12-23T03:58:28.550Z,55.45
2022-12-23T04:01:01.908Z,60.40
2022-12-23T04:03:48.003Z,51.78
2022-12-23T04:06:16.432Z,55.85
2022-12-23T04:08:44.095Z,56.30
2022-12-23T04:11:11.530Z,64.80
2022-12-23T04:13:38.419Z,62.33
2022-12-23T04:16:05.765Z,60.22
2022-12-23T04:18:32.557Z,62.00
2022-12-23T04:20:59.395Z,55.38
2022-12-23T04:23:26.129Z,60.10
2022-12-23T04:25:52.811Z,54.67
2022-12-23T04:28:20.169Z,58.70
2022-12-23T04:30:46.929Z,63.03
2022-12-23T04:33:13.525Z,62.95
2022-12-23T04:35:40.249Z,61.33
2022-12-23T04:38:07.668Z,57.08
2022-12-23T04:40:34.588Z,59.58
2022-12-23T04:43:01.265Z,60.60
2022-12-23T04:45:27.995Z,63.85
2022-12-23T04:47:55.478Z,58.42
2022-12-23T04:50:22.162Z,61.03
2022-12-23T04:52:48.872Z,61.08
2022-12-23T04:55:15.689Z,67.85
2022-12-23T04:57:42.364Z,64.18
2022-12-23T05:00:09.636Z,57.80
2022-12-23T05:02:36.525Z,58.75
2022-12-23T05:05:03.860Z,59.67
2022-12-23T05:07:30.629Z,61.38
2022-12-23T05:10:01.893Z,67.13
2022-12-23T05:12:30.433Z,60.63
2022-12-23T05:14:57.227Z,59.55
2022-12-23T05:17:24.014Z,71.82
2022-12-23T05:19:50.642Z,62.25
2022-12-23T05:22:17.357Z,68.82
2022-12-23T05:24:44.169Z,74.32
2022-12-23T05:27:10.794Z,73.80
2022-12-23T05:29:37.712Z,70.90
2022-12-23T05:32:04.654Z,70.47
2022-12-23T05:38:11.094Z,63.75
2022-12-23T05:40:37.725Z,62.95
2022-12-23T05:43:04.784Z,60.13
2022-12-23T05:45:31.619Z,74.70
2022-12-23T05:47:58.496Z,61.67
2022-12-23T05:50:25.154Z,68.57
2022-12-23T05:52:51.978Z,72.10
2022-12-23T05:55:18.855Z,54.97
2022-12-23T05:57:45.513Z,65.35
2022-12-23T06:00:12.712Z,73.93
2022-12-23T06:02:40.013Z,62.75
2022-12-23T06:05:07.112Z,63.78
2022-12-23T06:07:33.817Z,69.38
2022-12-23T06:10:00.509Z,58.08
2022-12-23T06:12:27.322Z,64.63
2022-12-23T06:14:54.115Z,56.53
2022-12-23T06:17:20.946Z,65.82
2022-12-23T06:19:47.582Z,68.07
2022-12-23T06:22:14.603Z,62.53
2022-12-23T06:24:41.375Z,63.80
2022-12-23T06:27:08.055Z,69.43
2022-12-23T06:29:34.867Z,60.65
2022-12-23T06:32:01.510Z,61.63
2022-12-23T06:34:28.441Z,63.35
2022-12-23T06:36:55.120Z,66.80
2022-12-23T06:39:22.005Z,65.50
2022-12-23T06:41:48.698Z,69.28
2022-12-23T06:44:15.461Z,72.82
2022-12-23T06:46:42.093Z,72.78
2022-12-23T06:49:13.125Z,60.83
2022-12-23T06:51:40.511Z,68.07
2022-12-23T06:54:07.232Z,58.70
2022-12-23T06:56:34.274Z,56.47
2022-12-23T06:59:00.945Z,63.95
2022-12-23T07:01:27.664Z,62.60
2022-12-23T07:03:54.515Z,72.32
2022-12-23T07:06:21.130Z,64.72
2022-12-23T07:08:47.777Z,61.20
2022-12-23T07:11:14.402Z,66.88
2022-12-23T07:13:41.162Z,63.88
2022-12-23T07:16:08.854Z,66.55
2022-12-23T07:18:35.952Z,66.57
2022-12-23T07:21:03.525Z,64.63
2022-12-23T07:23:31.020Z,63.55
2022-12-23T07:25:57.730Z,66.72
2022-12-23T07:28:24.726Z,63.47
2022-12-23T07:30:51.583Z,66.93
2022-12-23T07:33:18.299Z,68.80
2022-12-23T07:35:45.036Z,71.97
2022-12-23T07:38:11.962Z,61.10
2022-12-23T07:40:39.096Z,62.50
2022-12-23T07:43:05.806Z,61.33
2022-12-23T07:45:32.557Z,64.40
2022-12-23T07:48:00.965Z,67.05
2022-12-23T07:50:28.391Z,66.13
2022-12-23T07:53:18.700Z,71.20
2022-12-23T07:55:49.123Z,67.25
2022-12-23T07:58:19.896Z,72.65
2022-12-23T08:00:46.649Z,65.38
2022-12-23T08:03:13.565Z,64.78
2022-12-23T08:05:40.259Z,61.45
2022-12-23T08:08:06.993Z,67.18
2022-12-23T08:10:33.960Z,67.15
2022-12-23T08:13:01.044Z,62.33
2022-12-23T08:15:27.693Z,67.90
2022-12-23T08:17:56.267Z,63.05
2022-12-23T08:20:22.902Z,69.22
2022-12-23T08:22:49.515Z,65.55
2022-12-23T08:25:16.298Z,62.95
2022-12-23T08:27:42.873Z,62.10
2022-12-23T08:30:10.031Z,72.13
2022-12-23T08:32:36.840Z,63.00
2022-12-23T08:35:03.584Z,66.88
2022-12-23T08:37:30.312Z,64.38
2022-12-23T08:39:56.981Z,64.25
2022-12-23T08:42:23.688Z,55.55
2022-12-23T08:44:50.266Z,64.65
2022-12-23T08:47:16.950Z,66.93
2022-12-23T08:49:43.693Z,55.53
2022-12-23T08:52:10.413Z,57.42
2022-12-23T08:54:37.086Z,57.28
2022-12-23T08:57:03.825Z,64.18
2022-12-23T08:59:30.441Z,55.83
2022-12-23T09:02:02.219Z,59.58
2022-12-23T09:04:29.053Z,56.80
2022-12-23T09:06:55.848Z,55.30
2022-12-23T09:09:22.558Z,54.05
2022-12-23T09:11:49.336Z,51.63
2022-12-23T09:14:16.032Z,49.22
2022-12-23T09:16:42.888Z,59.20
2022-12-23T09:19:09.665Z,55.97
2022-12-23T09:21:36.535Z,53.58
2022-12-23T09:24:03.295Z,51.47
2022-12-23T09:26:30.711Z,56.50
2022-12-23T09:28:57.503Z,57.53
2022-12-23T09:31:27.951Z,50.55
2022-12-23T09:33:59.314Z,51.88
2022-12-23T09:36:25.949Z,56.60
2022-12-23T09:38:57.018Z,62.28
2022-12-23T09:41:48.834Z,63.70
2022-12-23T09:44:27.746Z,56.25
2022-12-23T09:46:58.767Z,53.47
2022-12-23T09:49:25.650Z,67.15
2022-12-23T09:52:00.271Z,59.08
2022-12-23T09:54:29.512Z,41.42
2022-12-23T09:57:18.052Z,58.97
2022-12-23T09:59:59.873Z,58.75
2022-12-23T10:02:29.792Z,56.70
2022-12-23T10:05:24.755Z,61.80
2022-12-23T10:07:57.513Z,59.70
2022-12-23T10:10:38.949Z,49.60
2022-12-23T10:13:11.968Z,59.50
2022-12-23T10:15:45.022Z,56.85
2022-12-23T10:18:47.196Z,59.35
2022-12-23T10:21:31.276Z,51.85
2022-12-23T10:23:59.933Z,60.88
2022-12-23T10:26:32.672Z,57.08
2022-12-23T10:29:19.341Z,57.65
2022-12-23T10:31:58.577Z,59.67
2022-12-23T10:34:38.110Z,61.55
2022-12-23T10:37:20.278Z,62.55
2022-12-23T10:40:16.292Z,57.50
2022-12-23T10:42:51.260Z,56.72
2022-12-23T10:45:41.319Z,58.92
2022-12-23T10:48:19.816Z,61.60
2022-12-23T10:50:46.573Z,62.88
2022-12-23T10:53:20.324Z,50.00
2022-12-23T10:55:49.046Z,65.80
2022-12-23T10:58:18.428Z,58.72
2022-12-23T11:01:20.311Z,59.83
2022-12-23T11:04:04.944Z,61.95
2022-12-23T11:06:37.127Z,52.60
2022-12-23T11:09:05.579Z,62.70
2022-12-23T11:11:54.608Z,75.60
2022-12-23T11:14:41.701Z,54.80
2022-12-23T11:17:26.980Z,61.58
2022-12-23T11:20:15.879Z,65.78
2022-12-23T11:22:51.701Z,64.50
2022-12-23T11:25:27.690Z,65.43
2022-12-23T11:27:57.891Z,66.72
2022-12-23T11:30:24.890Z,64.80
2022-12-23T11:32:52.550Z,60.20
2022-12-23T11:35:25.313Z,68.57
2022-12-23T11:37:52.074Z,60.42
2022-12-23T11:40:38.239Z,63.10
2022-12-23T11:43:06.935Z,61.40
2022-12-23T11:45:36.083Z,59.28
2022-12-23T11:48:07.166Z,67.55
2022-12-23T11:50:37.790Z,62.20
2022-12-23T11:53:10.340Z,69.18
2022-12-23T11:55:38.421Z,57.80
2022-12-23T11:58:05.284Z,60.25
2022-12-23T12:00:40.754Z,63.30
2022-12-23T12:03:16.772Z,60.58
2022-12-23T12:08:37.108Z,60.13
2022-12-23T12:11:13.679Z,63.30
2022-12-23T12:13:42.438Z,63.90
2022-12-23T12:16:32.548Z,66.75
2022-12-23T12:19:05.678Z,76.03
2022-12-23T12:21:37.060Z,68.95
2022-12-23T12:24:19.028Z,79.45
2022-12-23T12:26:51.232Z,76.18
2022-12-23T12:29:36.575Z,70.13
2022-12-23T12:32:07.283Z,70.47
2022-12-23T12:34:56.542Z,75.03
2022-12-23T12:37:43.244Z,75.90
2022-12-23T12:40:23.857Z,71.07
2022-12-23T12:43:00.098Z,76.28
2022-12-23T12:45:34.597Z,73.55
2022-12-23T12:48:26.054Z,66.40
2022-12-23T12:51:18.951Z,69.63
2022-12-23T12:54:05.956Z,62.53
2022-12-23T12:56:43.958Z,71.13
2022-12-23T12:59:37.065Z,72.55
2022-12-23T13:02:09.957Z,71.18
2022-12-23T13:04:56.641Z,67.20
2022-12-23T13:07:48.421Z,69.28
2022-12-23T13:10:25.164Z,75.80
2022-12-23T13:13:13.567Z,78.50
2022-12-23T13:16:06.879Z,82.90
2022-12-23T13:18:39.420Z,78.15
2022-12-23T13:21:13.414Z,76.50
2022-12-23T13:23:59.255Z,76.32
2022-12-23T13:26:36.424Z,71.05
2022-12-23T13:29:30.645Z,72.63
2022-12-23T13:32:21.911Z,79.78
2022-12-23T13:35:08.355Z,76.18
2022-12-23T13:37:44.191Z,74.90
2022-12-23T13:40:24.948Z,76.10
2022-12-23T13:42:55.883Z,68.90
2022-12-23T13:45:26.621Z,78.55
2022-12-23T13:48:08.546Z,79.55
2022-12-23T13:50:46.528Z,93.35
2022-12-23T13:53:20.558Z,83.32
2022-12-23T13:56:10.626Z,83.45
2022-12-23T13:58:39.489Z,99.45
2022-12-23T14:01:10.254Z,87.07
2022-12-23T14:03:39.112Z,99.47
2022-12-23T14:06:24.237Z,91.03
2022-12-23T14:08:52.276Z,95.10
2022-12-23T14:11:19.544Z,115.72
2022-12-23T14:13:52.527Z,95.78
2022-12-23T14:16:32.202Z,96.15
2022-12-23T14:19:29.871Z,83.15
2022-12-23T14:22:05.476Z,89.07
2022-12-23T14:24:55.335Z,86.22
2022-12-23T14:27:31.280Z,85.53
2022-12-23T14:30:11.855Z,94.15
2022-12-23T14:33:19.179Z,87.18
2022-12-23T14:35:45.823Z,90.22
2022-12-23T14:38:15.471Z,92.95
2022-12-23T14:40:42.160Z,91.90
2022-12-23T14:43:32.068Z,89.35
2022-12-23T14:46:05.022Z,89.07
2022-12-23T14:48:34.855Z,90.70
2022-12-23T14:51:13.801Z,87.32
2022-12-23T14:53:53.847Z,86.28
2022-12-23T14:56:38.852Z,93.30
2022-12-23T14:59:14.823Z,96.57
2022-12-23T15:01:57.207Z,96.88
2022-12-23T15:04:28.516Z,108.63
2022-12-23T15:06:59.189Z,101.90
2022-12-23T15:09:45.429Z,108.57
2022-12-23T15:12:15.477Z,109.72
2022-12-23T15:14:50.377Z,115.20
2022-12-23T15:17:30.263Z,95.70
2022-12-23T15:20:20.483Z,103.93
2022-12-23T15:22:48.303Z,101.30
2022-12-23T15:25:25.128Z,101.00
2022-12-23T15:28:00.896Z,96.50
2022-12-23T15:30:30.891Z,100.97
2022-12-23T15:32:59.639Z,108.88
2022-12-23T15:35:32.580Z,99.22
2022-12-23T15:38:00.939Z,101.50
2022-12-23T15:40:33.846Z,103.97
2022-12-23T15:43:01.670Z,100.80
2022-12-23T15:45:42.628Z,95.55
2022-12-23T15:48:29.458Z,90.45
2022-12-23T15:51:08.533Z,93.80
2022-12-23T15:53:37.856Z,94.80
2022-12-23T15:56:08.860Z,100.13
2022-12-23T15:58:39.083Z,92.53
2022-12-23T16:01:06.670Z,85.43
2022-12-23T16:03:36.659Z,92.63
2022-12-23T16:06:41.969Z,86.55
2022-12-23T16:09:17.921Z,100.13
2022-12-23T16:12:05.580Z,98.50
2022-12-23T16:14:40.498Z,94.60
2022-12-23T16:17:10.222Z,96.72
2022-12-23T16:19:44.120Z,92.30
2022-12-23T16:22:30.151Z,91.35
2022-12-23T16:24:56.873Z,96.55
2022-12-23T16:27:37.087Z,96.60
2022-12-23T16:30:19.732Z,95.72
2022-12-23T16:32:52.381Z,96.57
2022-12-23T16:35:40.348Z,93.55
2022-12-23T16:38:20.252Z,95.30
2022-12-23T16:40:51.290Z,85.95
2022-12-23T16:43:19.327Z,92.65
2022-12-23T16:45:47.648Z,84.22
2022-12-23T16:48:23.800Z,86.90
2022-12-23T16:50:52.468Z,94.50
2022-12-23T16:53:19.610Z,92.32
2022-12-23T16:55:52.426Z,102.57
2022-12-23T16:58:23.422Z,95.28
2022-12-23T17:00:51.581Z,98.25
2022-12-23T17:03:19.770Z,90.47
2022-12-23T17:05:47.323Z,89.15
2022-12-23T17:08:14.543Z,94.47
2022-12-23T17:10:42.399Z,94.88
2022-12-23T17:13:11.954Z,107.00
2022-12-23T17:15:38.732Z,107.25
2022-12-23T17:18:12.392Z,101.82
2022-12-23T17:20:39.169Z,93.07
2022-12-23T17:23:06.232Z,97.03
2022-12-23T17:25:33.323Z,91.57
2022-12-23T17:28:00.031Z,95.50
2022-12-23T17:30:26.776Z,91.93
2022-12-23T17:32:58.164Z,84.07
2022-12-23T17:35:25.673Z,95.68
2022-12-23T17:37:53.398Z,91.63
2022-12-23T17:40:20.947Z,94.47
2022-12-23T17:42:47.922Z,87.22
2022-12-23T17:45:25.846Z,97.50
2022-12-23T17:47:53.250Z,89.15
2022-12-23T17:50:20.440Z,94.10
2022-12-23T17:52:47.640Z,90.85
2022-12-23T17:55:21.394Z,89.97
2022-12-23T17:57:48.495Z,85.45
2022-12-23T18:00:24.125Z,94.75
2022-12-23T18:02:56.625Z,82.90
2022-12-23T18:05:27.151Z,85.38
2022-12-23T18:07:55.090Z,107.47
2022-12-23T18:10:27.765Z,94.88
2022-12-23T18:12:58.048Z,91.18
2022-12-23T18:15:36.820Z,97.53
2022-12-23T18:18:13.613Z,98.53
2022-12-23T18:20:41.213Z,88.78
2022-12-23T18:23:13.197Z,104.25
2022-12-23T18:25:40.514Z,92.97
2022-12-23T18:28:07.824Z,100.63
2022-12-23T18:30:34.654Z,94.13
2022-12-23T18:33:01.364Z,88.80
2022-12-23T18:35:38.465Z,97.80
2022-12-23T18:38:05.315Z,98.35
2022-12-23T18:40:33.232Z,90.85
2022-12-23T18:43:00.130Z,95.50
2022-12-23T18:45:31.976Z,93.55
2022-12-23T18:47:59.286Z,95.07
2022-12-23T18:50:27.012Z,98.03
2022-12-23T18:52:54.272Z,91.82
2022-12-23T18:55:21.478Z,89.82
2022-12-23T18:57:49.429Z,96.22
2022-12-23T19:00:22.128Z,93.40
2022-12-23T19:02:50.197Z,90.55
2022-12-23T19:05:29.076Z,96.28
2022-12-23T19:07:57.524Z,90.10
2022-12-23T19:10:24.153Z,92.95
2022-12-23T19:12:51.498Z,91.70
2022-12-23T19:15:19.030Z,88.30
2022-12-23T19:17:46.528Z,92.22
2022-12-23T19:20:15.664Z,95.90
2022-12-23T19:22:42.457Z,88.22
2022-12-23T19:25:11.677Z,96.03
2022-12-23T19:27:44.648Z,100.35
2022-12-23T19:30:14.294Z,89.82
2022-12-23T19:32:41.075Z,100.57
2022-12-23T19:35:08.454Z,87.95
2022-12-23T19:37:36.480Z,90.15
2022-12-23T19:40:03.491Z,85.03
2022-12-23T19:42:30.726Z,86.70
2022-12-23T19:44:57.591Z,92.13
2022-12-23T19:47:24.261Z,92.80
2022-12-23T19:49:50.972Z,96.05
2022-12-23T19:52:17.775Z,93.60
2022-12-23T19:54:44.489Z,97.43
2022-12-23T19:57:11.216Z,86.72
2022-12-23T19:59:38.062Z,88.20
2022-12-23T20:02:04.730Z,97.75
2022-12-23T20:04:32.171Z,98.30
2022-12-23T20:06:58.910Z,91.43
2022-12-23T20:09:25.697Z,89.07
2022-12-23T20:11:52.357Z,88.80
2022-12-23T20:14:19.541Z,87.63
2022-12-23T20:16:48.341Z,101.57
2022-12-23T20:19:15.663Z,93.18
2022-12-23T20:21:42.376Z,97.80
2022-12-23T20:24:09.805Z,93.07
2022-12-23T20:26:36.664Z,88.43
2022-12-23T20:29:03.420Z,85.28
2022-12-23T20:31:32.575Z,89.40
2022-12-23T20:34:00.873Z,78.60
2022-12-23T20:36:30.727Z,84.85
2022-12-23T20:38:58.217Z,89.72
2022-12-23T20:41:27.694Z,90.95
2022-12-23T20:44:31.829Z,87.22
2022-12-23T20:46:41.487Z,88.20
2022-12-23T20:49:08.283Z,89.30
2022-12-23T20:51:35.240Z,89.07
2022-12-23T20:54:01.992Z,86.70
2022-12-23T20:56:30.454Z,93.20
2022-12-23T20:58:59.532Z,95.30
2022-12-23T21:01:27.729Z,82.80
2022-12-23T21:03:55.203Z,89.32
2022-12-23T21:06:22.095Z,87.50
2022-12-23T21:08:48.793Z,86.65
2022-12-23T21:11:15.963Z,86.80
2022-12-23T21:13:43.994Z,84.15
2022-12-23T21:16:12.296Z,88.22
2022-12-23T21:18:44.619Z,93.80
2022-12-23T21:21:12.382Z,88.80
2022-12-23T21:23:42.492Z,86.47
2022-12-23T21:26:17.233Z,87.68
2022-12-23T21:28:46.428Z,80.63
2022-12-23T21:31:17.630Z,98.25
2022-12-23T21:33:45.501Z,91.50
2022-12-23T21:36:19.841Z,94.20
2022-12-23T21:38:47.296Z,76.70
2022-12-23T21:41:19.505Z,95.95
2022-12-23T21:43:46.351Z,94.93
2022-12-23T21:46:15.385Z,88.95
2022-12-23T21:48:42.700Z,94.15
2022-12-23T21:51:24.365Z,93.32
2022-12-23T21:53:52.769Z,89.05
2022-12-23T21:56:28.498Z,92.25
2022-12-23T21:59:00.290Z,95.35
2022-12-23T22:01:28.091Z,89.15
2022-12-23T22:03:55.883Z,92.65
2022-12-23T22:06:28.414Z,89.70
2022-12-23T22:08:55.571Z,88.97
2022-12-23T22:11:26.135Z,86.82
2022-12-23T22:13:53.302Z,97.10
2022-12-23T22:16:22.158Z,91.65
2022-12-23T22:18:49.436Z,91.57
2022-12-23T22:21:19.205Z,92.00
2022-12-23T22:23:46.900Z,91.47
2022-12-23T22:26:20.251Z,97.95
2022-12-23T22:28:50.854Z,88.38
2022-12-23T22:31:18.456Z,91.50
2022-12-23T22:33:45.474Z,83.78
2022-12-23T22:36:15.714Z,94.22
2022-12-23T22:38:43.616Z,82.53
2022-12-23T22:41:10.889Z,91.72
2022-12-23T22:43:37.755Z,91.50
2022-12-23T22:46:04.876Z,94.50
2022-12-23T22:48:31.815Z,88.68
2022-12-23T22:51:07.613Z,91.93
2022-12-23T22:53:34.243Z,94.63
2022-12-23T22:56:01.984Z,92.80
2022-12-23T22:58:30.144Z,88.75
2022-12-23T23:00:58.305Z,88.07
2022-12-23T23:03:26.412Z,90.63
2022-12-23T23:06:00.998Z,98.88
2022-12-23T23:08:28.615Z,90.13
2022-12-23T23:10:59.857Z,92.05
2022-12-23T23:13:29.410Z,96.32
2022-12-23T23:15:56.393Z,92.68
2022-12-23T23:18:23.776Z,89.47
2022-12-23T23:20:50.645Z,88.35
2022-12-23T23:23:17.826Z,89.18
2022-12-23T23:25:45.427Z,93.72
2022-12-23T23:28:14.069Z,85.72
2022-12-23T23:30:41.102Z,86.30
2022-12-23T23:33:08.659Z,97.20
2022-12-23T23:35:35.928Z,95.15
2022-12-23T23:38:02.629Z,89.95
2022-12-23T23:40:29.954Z,96.22
2022-12-23T23:42:56.629Z,100.93
2022-12-23T23:45:23.512Z,100.35
2022-12-23T23:47:50.465Z,96.65
2022-12-23T23:50:17.119Z,94.43
2022-12-23T23:52:43.814Z,87.32
2022-12-23T23:55:10.542Z,88.32
2022-12-23T23:57:37.501Z,92.75
